Latest Weather Observations for Gold Coast Seaway

IDQ60801

Issued at 6:02 am EST Thursday 21 September 2017 (issued every 30 minutes, with the page automatically refreshed every 10 minutes)

About weather observations | Map of weather stations | Latest weather observations for QLD | Other Formats
Station Details ID: 040764 Name: GOLD COAST SEAWAY Lat: -27.94 Lon: 153.43 Height: 2.98 m
Data from the previous 72 hours. | See also: Recent months at Gold Coast Seaway
Date/Time
EST
Temp
°C
App
Temp
°C
Dew
Point
°C
Rel
Hum
%
Delta-T
°C
Wind Press
QNH
hPa
Press
MSL
hPa
Rain since
9am
mm
Dir  Spd
km/h
Gust
km/h
Spd
kts
Gust
kts
21/06:00am 14.9 14.3 13.4 91 0.8 SW 9 11 5 6 1018.7 1018.7 0.0
21/05:30am 14.8 14.1 13.2 90 0.9 WSW 9 11 5 6 1018.4 1018.4 0.0
21/05:00am 15.0 14.2 13.0 88 1.1 W 9 11 5 6 1018.1 1018.1 0.0
21/04:30am 15.3 14.4 13.7 90 0.9 WNW 11 13 6 7 1017.9 1017.9 0.0
21/04:00am 15.4 14.8 13.6 89 1.0 WSW 9 11 5 6 1017.8 1017.8 0.0
21/03:30am 15.7 14.3 13.5 87 1.2 SW 13 13 7 7 1017.4 1017.4 0.0
21/03:00am 15.9 14.9 13.4 85 1.4 SW 11 13 6 7 1017.4 1017.4 0.0
21/02:30am 16.1 15.0 13.0 82 1.7 SSW 11 13 6 7 1017.6 1017.6 0.0
21/02:00am 16.7 15.8 12.7 77 2.2 SSW 9 13 5 7 1017.9 1017.9 0.0
21/01:30am 16.9 15.8 12.0 73 2.7 NNE 9 11 5 6 1018.3 1018.3 0.0
21/01:00am 17.6 16.5 12.1 70 3.0 NE 9 11 5 6 1018.7 1018.7 0.0
21/12:30am 18.4 16.7 12.6 69 3.2 NE 13 15 7 8 1018.8 1018.8 0.0
21/12:00am 18.9 17.4 13.1 69 3.3 NE 13 15 7 8 1018.7 1018.7 0.0
 
Date/Time
EST
Temp
°C
App
Temp
°C
Dew
Point
°C
Rel
Hum
%
Delta-T
°C
Wind Press
QNH
hPa
Press
MSL
hPa
Rain since
9am
mm
Dir  Spd
km/h
Gust
km/h
Spd
kts
Gust
kts
20/11:30pm 19.1 17.2 13.1 68 3.4 NE 15 17 8 9 1018.8 1018.8 0.0
20/11:00pm 19.3 17.8 13.0 67 3.5 ENE 13 15 7 8 1019.1 1019.1 0.0
20/10:30pm 19.4 17.6 13.3 68 3.5 E 15 19 8 10 1019.1 1019.1 0.0
20/10:00pm 19.4 16.9 13.6 69 3.3 E 19 20 10 11 1019.0 1019.0 0.0
20/09:30pm 19.5 17.3 13.4 68 3.5 E 17 20 9 11 1019.1 1019.1 0.0
20/09:00pm 19.3 16.6 13.5 69 3.3 E 20 24 11 13 1019.0 1019.0 0.0
20/08:30pm 19.5 16.9 13.7 69 3.3 E 20 26 11 14 1018.9 1018.9 0.0
20/08:00pm 19.5 16.4 13.4 68 3.5 ESE 22 26 12 14 1018.7 1018.7 0.0
20/07:30pm 19.6 16.9 13.5 68 3.5 ESE 20 26 11 14 1018.4 1018.4 0.0
20/07:00pm 19.6 16.3 14.0 70 3.2 ESE 24 28 13 15 1017.8 1017.8 0.0
20/06:30pm 19.5 15.6 13.2 67 3.6 ESE 26 30 14 16 1017.2 1017.2 0.0
20/06:00pm 19.6 16.1 13.3 67 3.6 ESE 24 28 13 15 1016.8 1016.8 0.0
20/05:30pm 19.8 15.8 14.0 69 3.3 ESE 28 32 15 17 1016.4 1016.4 0.0
20/05:00pm 19.8 15.5 13.3 66 3.7 ESE 28 32 15 17 1016.2 1016.2 0.0
20/04:30pm 20.4 15.6 12.9 62 4.3 ESE 30 35 16 19 1015.9 1015.9 0.0
20/04:00pm 21.0 16.1 12.7 59 4.7 SE 30 33 16 18 1015.8 1015.8 0.0
20/03:30pm 21.8 16.7 13.2 58 4.9 SE 32 35 17 19 1015.8 1015.8 0.0
20/03:00pm 22.5 17.5 13.3 56 5.3 SE 32 35 17 19 1015.8 1015.8 0.0
20/02:30pm 22.8 18.0 13.0 54 5.6 SE 30 33 16 18 1016.2 1016.2 0.0
20/02:00pm 23.2 18.6 13.4 54 5.7 SE 30 33 16 18 1016.5 1016.5 0.0
20/01:30pm 23.2 18.2 13.4 54 5.7 SE 32 35 17 19 1016.7 1016.7 0.0
20/01:00pm 24.0 19.4 13.5 52 6.1 SE 30 35 16 19 1017.1 1017.1 0.0
20/12:30pm 24.4 19.5 13.6 51 6.3 SE 32 39 17 21 1017.6 1017.6 0.0
20/12:00pm 24.4 19.6 14.5 54 5.9 SE 33 39 18 21 1018.0 1018.0 0.0
20/11:30am 23.6 18.2 12.9 51 6.2 SE 33 39 18 21 1018.3 1018.3 0.0
20/11:00am 24.0 18.3 12.9 50 6.4 SE 35 41 19 22 1018.7 1018.7 0.0
20/10:30am 23.8 18.4 12.8 50 6.3 SE 33 39 18 21 1019.0 1019.0 0.0
20/10:00am 24.0 19.8 13.5 52 6.1 SE 28 35 15 19 1019.3 1019.3 0.0
20/09:30am 22.8 17.6 12.7 53 5.8 SSE 32 37 17 20 1019.3 1019.3 0.0
20/09:00am 22.2 16.9 12.5 54 5.5 SSE 32 37 17 20 1019.3 1019.3 0.0
20/08:30am 21.3 15.8 12.4 57 5.0 SSE 33 39 18 21 1019.3 1019.3 0.0
20/08:00am 20.6 14.8 11.5 56 5.0 S 33 43 18 23 1019.2 1019.2 0.0
20/07:30am 19.8 14.1 11.0 57 4.8 S 32 41 17 22 1019.1 1019.1 0.0
20/07:00am 19.1 13.6 11.7 62 4.1 S 32 44 17 24 1018.9 1018.9 0.0
20/06:30am 18.4 13.1 12.6 69 3.2 S 32 41 17 22 1018.4 1018.4 0.0
20/06:00am 17.8 13.0 12.9 73 2.7 S 30 37 16 20 1017.9 1017.9 0.0
20/05:30am 17.5 13.3 13.6 78 2.2 S 28 33 15 18 1017.4 1017.4 0.0
20/05:00am 17.6 13.9 13.9 79 2.1 S 26 32 14 17 1017.2 1017.2 0.0
20/04:30am 17.6 14.7 13.9 79 2.1 S 22 28 12 15 1016.9 1016.9 0.0
20/04:00am 17.8 13.9 14.3 80 2.0 S 28 35 15 19 1016.6 1016.6 0.0
20/03:30am 18.2 13.6 16.2 88 1.2 SSE 35 41 19 22 1016.5 1016.5 0.0
20/03:00am 18.2 15.2 16.7 91 0.9 SSE 28 32 15 17 1016.4 1016.4 0.0
20/02:30am 18.5 15.0 17.5 94 0.6 SSE 32 39 17 21 1016.2 1016.2 0.0
20/02:00am 19.0 14.8 18.8 99 0.1 SE 39 48 21 26 1016.1 1016.1 0.0
20/01:53am 19.0 15.9 18.8 99 0.1 SSE 33 46 18 25 1016.1 1016.1 0.0
20/01:37am 18.0 17.9 17.8 99 0.1 WNW 15 43 8 23 1016.1 1016.1 0.0
20/01:30am 18.1 18.8 17.9 99 0.1 NNW 11 13 6 7 1015.4 1015.4 0.0
20/01:00am 18.2 19.0 17.2 94 0.6 WNW 9 11 5 6 1015.0 1015.0 0.0
20/12:30am 18.7 19.1 17.2 91 0.9 NNW 11 13 6 7 1015.6 1015.6 0.0
20/12:00am 19.0 19.4 17.3 90 1.0 NNW 11 13 6 7 1015.9 1015.9 0.0
 
Date/Time
EST
Temp
°C
App
Temp
°C
Dew
Point
°C
Rel
Hum
%
Delta-T
°C
Wind Press
QNH
hPa
Press
MSL
hPa
Rain since
9am
mm
Dir  Spd
km/h
Gust
km/h
Spd
kts
Gust
kts
19/11:30pm 19.4 19.9 17.5 89 1.2 NW 11 13 6 7 1016.2 1016.2 0.0
19/11:00pm 19.7 20.6 17.5 87 1.3 NNW 9 11 5 6 1016.2 1016.2 0.0
19/10:30pm 20.4 20.7 18.0 86 1.5 NW 13 17 7 9 1016.3 1016.3 0.0
19/10:00pm 20.8 19.6 17.6 82 2.0 NW 20 26 11 14 1016.8 1016.8 0.0
19/09:30pm 20.6 20.1 17.8 84 1.7 NNW 17 24 9 13 1016.5 1016.5 0.0
19/09:00pm 20.3 19.8 17.9 86 1.5 NNW 17 22 9 12 1016.7 1016.7 0.0
19/08:30pm 20.1 21.0 17.5 85 1.6 NNW 9 15 5 8 1016.8 1016.8 0.0
19/08:00pm 19.9 20.6 17.1 84 1.7 NNW 9 11 5 6 1016.6 1016.6 0.0
19/07:30pm 20.0 20.1 17.4 85 1.6 NW 13 15 7 8 1016.3 1016.3 0.0
19/07:00pm 20.3 20.4 17.5 84 1.7 NNW 13 15 7 8 1016.3 1016.3 0.0
19/06:30pm 20.7 20.2 17.7 83 1.8 NNW 17 26 9 14 1015.9 1015.9 0.0
19/06:00pm 21.0 18.5 16.2 74 2.9 N 24 33 13 18 1015.9 1015.9 0.0
19/05:30pm 20.9 18.8 18.1 84 1.7 N 26 33 14 18 1015.9 1015.9 0.0
19/05:00pm 21.1 17.8 17.9 82 2.0 N 32 37 17 20 1015.4 1015.4 0.0
19/04:30pm 21.7 18.7 17.7 78 2.5 N 30 33 16 18 1014.7 1014.7 0.0
19/04:00pm 22.1 19.1 17.7 76 2.7 N 30 35 16 19 1014.8 1014.8 0.0
19/03:30pm 22.3 19.0 17.0 72 3.2 N 30 35 16 19 1015.1 1015.1 0.0
19/03:00pm 23.9 20.5 16.7 64 4.4 NNE 30 33 16 18 1015.3 1015.3 0.0
19/02:30pm 25.2 21.5 14.9 52 6.2 NNE 28 32 15 17 1015.8 1015.8 0.0
19/02:00pm 25.0 22.4 14.8 53 6.1 N 22 30 12 16 1016.4 1016.4 0.0
19/01:30pm 25.3 20.9 14.1 50 6.6 NNE 30 35 16 19 1016.7 1016.7 0.0
19/01:00pm 25.2 21.9 14.9 52 6.2 NNE 26 30 14 16 1017.3 1017.3 0.0
19/12:30pm 25.9 23.1 14.4 49 6.9 N 22 30 12 16 1017.9 1017.9 0.0
19/12:00pm 25.7 20.9 8.7 34 9.2 NNW 24 32 13 17 1018.4 1018.4 0.0
19/11:30am 25.2 21.3 9.5 37 8.6 NNW 20 30 11 16 1019.2 1019.2 0.0
19/11:00am 24.6 20.1 10.1 40 8.0 NW 24 33 13 18 1019.8 1019.8 0.0
19/10:30am 23.6 18.7 8.5 38 8.0 NW 24 30 13 16 1020.4 1020.4 0.0
19/10:00am 22.6 18.2 9.0 42 7.2 NW 22 33 12 18 1020.7 1020.7 0.0
19/09:30am 22.1 18.4 10.3 47 6.4 NW 20 28 11 15 1021.1 1021.1 0.0
19/09:00am 20.8 15.8 9.7 49 5.9 NW 26 30 14 16 1021.3 1021.3 0.0
19/08:30am 20.1 15.3 10.2 53 5.3 WNW 26 30 14 16 1021.7 1021.7 0.0
19/08:00am 19.0 14.9 11.3 61 4.2 NW 24 30 13 16 1021.8 1021.8 0.0
19/07:30am 17.4 15.5 12.9 75 2.5 NW 15 19 8 10 1021.8 1021.8 0.0
19/07:00am 16.4 14.5 13.1 81 1.8 NW 15 19 8 10 1021.6 1021.6 0.0
19/06:30am 15.6 14.5 13.1 85 1.4 NNW 11 15 6 8 1021.5 1021.5 0.0
19/06:00am 15.4 13.8 12.9 85 1.4 NW 13 15 7 8 1021.2 1021.2 0.0
19/05:30am 15.5 13.2 13.0 85 1.4 NW 17 19 9 10 1021.4 1021.4 0.0
19/05:00am 15.6 14.1 14.1 91 0.8 NW 15 20 8 11 1021.2 1021.2 0.0
19/04:30am 14.8 13.9 13.7 93 0.6 NNW 11 15 6 8 1021.1 1021.1 0.0
19/04:00am 14.7 13.6 13.2 91 0.8 NNW 11 11 6 6 1021.4 1021.4 0.0
19/03:30am 14.5 13.5 13.4 93 0.6 NW 11 13 6 7 1021.3 1021.3 0.0
19/03:00am 14.4 13.8 13.6 95 0.4 WNW 9 11 5 6 1021.5 1021.5 0.0
19/02:30am 14.1 13.1 13.3 95 0.4 WNW 11 11 6 6 1021.7 1021.7 0.0
19/02:00am 12.7 11.4 11.1 90 0.8 NW 9 9 5 5 1022.1 1022.1 0.0
19/01:30am 13.8 12.8 12.4 91 0.8 WNW 9 11 5 6 1022.5 1022.5 0.0
19/01:00am 14.0 13.0 12.2 89 1.0 WNW 9 11 5 6 1022.9 1022.9 0.0
19/12:30am 14.1 13.0 12.0 87 1.1 WNW 9 9 5 5 1023.1 1023.1 0.0
19/12:00am 14.1 13.0 10.7 80 1.8 WNW 7 9 4 5 1023.3 1023.3 0.0
 
Date/Time
EST
Temp
°C
App
Temp
°C
Dew
Point
°C
Rel
Hum
%
Delta-T
°C
Wind Press
QNH
hPa
Press
MSL
hPa
Rain since
9am
mm
Dir  Spd
km/h
Gust
km/h
Spd
kts
Gust
kts
18/11:30pm 15.5 14.4 12.1 80 1.9 W 9 11 5 6 1023.4 1023.4 0.0
18/11:00pm 16.3 14.6 12.5 78 2.1 WNW 13 15 7 8 1023.5 1023.5 0.0
18/10:30pm 16.5 14.8 12.5 77 2.2 NW 13 15 7 8 1023.7 1023.7 0.0
18/10:00pm 16.9 15.2 12.4 75 2.5 NW 13 15 7 8 1023.9 1023.9 0.0
18/09:30pm 17.3 15.6 12.6 74 2.6 NNW 13 17 7 9 1023.9 1023.9 0.0
18/09:00pm 17.3 15.6 12.4 73 2.7 NNW 13 17 7 9 1023.9 1023.9 0.0
18/08:30pm 17.6 15.9 12.5 72 2.8 NW 13 17 7 9 1023.8 1023.8 0.0
18/08:00pm 17.6 15.9 12.5 72 2.8 NNW 13 15 7 8 1023.7 1023.7 0.0
18/07:30pm 17.8 15.9 11.8 68 3.3 NNW 13 17 7 9 1023.6 1023.6 0.0
18/07:00pm 18.6 14.7 12.1 66 3.6 N 24 28 13 15 1023.5 1023.5 0.0
18/06:30pm 18.7 15.3 12.5 67 3.5 N 22 28 12 15 1023.5 1023.5 0.0
18/06:00pm 18.6 15.0 11.9 65 3.7 NNE 22 28 12 15 1023.2 1023.2 0.0
18/05:30pm 19.0 14.9 11.3 61 4.2 NNE 24 28 13 15 1023.0 1023.0 0.0
18/05:00pm 19.9 15.4 11.4 58 4.7 NNE 26 30 14 16 1022.9 1022.9 0.0
18/04:30pm 20.6 16.0 11.0 54 5.3 NNE 26 32 14 17 1022.7 1022.7 0.0
18/04:00pm 21.3 16.7 11.1 52 5.6 NNE 26 30 14 16 1022.6 1022.6 0.0
18/03:30pm 21.8 17.5 10.9 50 6.0 NNE 24 26 13 14 1022.6 1022.6 0.0
18/03:00pm 21.7 17.9 11.1 51 5.8 NE 22 26 12 14 1022.7 1022.7 0.0
18/02:30pm 22.1 18.1 10.3 47 6.4 NE 22 26 12 14 1023.0 1023.0 0.0
18/02:00pm 22.5 18.5 10.3 46 6.6 NE 22 26 12 14 1023.3 1023.3 0.0
18/01:30pm 22.7 18.9 11.1 48 6.4 NE 22 26 12 14 1023.7 1023.7 0.0
18/01:00pm 23.2 19.9 11.6 48 6.5 NE 20 26 11 14 1024.1 1024.1 0.0
18/12:30pm 23.1 19.6 10.9 46 6.8 NE 20 26 11 14 1024.7 1024.7 0.0
18/12:00pm 23.0 19.7 10.8 46 6.7 NE 19 22 10 12 1025.1 1025.1 0.0
18/11:30am 22.9 20.6 11.9 50 6.2 NE 15 19 8 10 1025.6 1025.6 0.0
18/11:00am 21.8 20.4 12.1 54 5.4 ENE 11 13 6 7 1026.2 1026.2 0.0
18/10:30am 21.3 20.0 11.3 53 5.5 E 9 11 5 6 1026.7 1026.7 0.0
18/10:00am 21.8 20.7 11.8 53 5.6 SE 9 9 5 5 1027.0 1027.0 0.0
18/09:30am 21.7 20.0 11.1 51 5.9 SSE 11 13 6 7 1027.2 1027.2 0.0
18/09:00am 21.2 20.0 11.5 54 5.4 SSE 9 11 5 6 1027.4 1027.4 0.0
18/08:30am 20.4 19.1 11.1 55 5.1 SSE 9 11 5 6 1027.4 1027.4 0.0
18/08:00am 18.7 17.4 11.3 62 4.0 S 9 11 5 6 1027.4 1027.4 0.0
18/07:30am 17.4 16.3 12.1 71 2.9 SW 9 11 5 6 1027.2 1027.2 0.0
18/07:00am 16.4 15.3 12.0 75 2.4 SW 9 11 5 6 1027.0 1027.0 0.0
18/06:30am 16.1 14.6 11.9 76 2.3 SSW 11 15 6 8 1026.7 1026.7 0.0

Other Formats:

Comma delimited format used in spreadsheet applications
http://www.bom.gov.au/fwo/IDQ60801/IDQ60801.94580.axf

JavaScript Object Notation format (JSON) in row-major order
http://www.bom.gov.au/fwo/IDQ60801/IDQ60801.94580.json